Time;durP1;ratioP1;P1;durP2;ratioP2;P2;SDS_P1;SDS_P2;PMS_P1;PMS_P2;Temp;Humidity;BMP_temperature;BMP_pressure;BME280_temperature;BME280_humidity;BME280_pressure;Samples;Min_cycle;Max_cycle;Signal;HPM_P1;HPM_P2
2024/03/22 00:00:28;;;;;;;10.40;6.32;;;;;;;19.01;48.05;102078.19;4984687;28;20103;-73
2024/03/22 00:02:53;;;;;;;9.47;6.17;;;;;;;18.90;48.29;102062.19;4968799;28;20034;-74
2024/03/22 00:05:21;;;;;;;13.32;6.20;;;;;;;18.59;48.10;102008.69;4968037;28;20280;-73
2024/03/22 00:07:47;;;;;;;9.30;6.05;;;;;;;18.85;48.34;102048.47;4967596;28;20029;-73
2024/03/22 00:10:13;;;;;;;9.13;6.43;;;;;;;18.94;48.24;102066.31;4968924;28;20027;-73
2024/03/22 00:12:38;;;;;;;10.35;6.30;;;;;;;18.94;48.20;102066.31;4969281;28;20027;-73
2024/03/22 00:15:04;;;;;;;8.90;6.22;;;;;;;18.84;48.26;102049.38;4968044;28;20030;-73
2024/03/22 00:17:30;;;;;;;8.18;5.97;;;;;;;18.92;48.03;102062.09;4969269;28;20035;-74
2024/03/22 00:19:56;;;;;;;9.77;6.47;;;;;;;18.79;48.17;102040.91;4969266;28;20080;-75
2024/03/22 00:22:21;;;;;;;9.90;6.50;;;;;;;18.82;48.34;102049.47;4968975;28;20045;-75
2024/03/22 00:24:46;;;;;;;10.05;6.78;;;;;;;18.89;48.37;102057.03;4969038;28;20035;-73
2024/03/22 00:27:12;;;;;;;9.38;6.28;;;;;;;18.91;48.25;102061.22;4969025;28;20051;-75
2024/03/22 00:29:38;;;;;;;10.43;6.60;;;;;;;18.72;48.41;102023.75;4969112;28;20066;-75
2024/03/22 00:32:03;;;;;;;9.77;6.43;;;;;;;18.89;48.51;102052.56;4968896;28;20041;-75
2024/03/22 00:34:29;;;;;;;9.63;6.55;;;;;;;18.88;48.27;102050.88;4969017;28;20050;-75
2024/03/22 00:36:54;;;;;;;10.27;7.00;;;;;;;18.87;48.28;102038.63;4969169;28;20019;-73
2024/03/22 00:39:19;;;;;;;9.70;6.47;;;;;;;18.88;48.51;102036.81;4968866;28;20073;-73
2024/03/22 00:41:44;;;;;;;10.98;7.57;;;;;;;18.75;48.19;102015.63;4968443;28;20027;-75
2024/03/22 00:44:10;;;;;;;9.00;6.72;;;;;;;18.85;48.40;102030.81;4968598;28;20057;-73
2024/03/22 00:46:36;;;;;;;10.18;7.03;;;;;;;18.82;48.36;102017.75;4968723;28;20359;-73
2024/03/22 00:49:01;;;;;;;10.82;6.53;;;;;;;18.83;48.27;102010.69;4968770;28;20030;-74
2024/03/22 00:51:27;;;;;;;11.20;6.97;;;;;;;18.80;48.71;102008.25;4968384;28;20030;-73
2024/03/22 00:53:52;;;;;;;8.82;6.20;;;;;;;18.77;48.54;101992.59;4968815;28;20473;-73
2024/03/22 00:56:18;;;;;;;11.07;7.25;;;;;;;18.72;48.55;101982.31;4968782;28;20031;-73
2024/03/22 00:58:43;;;;;;;9.85;7.13;;;;;;;18.83;48.43;101987.78;4968755;28;20519;-74
2024/03/22 01:01:08;;;;;;;9.90;7.53;;;;;;;18.73;48.59;101972.63;4968794;28;20027;-73
2024/03/22 01:03:34;;;;;;;11.07;7.20;;;;;;;18.82;48.84;101977.31;4966884;28;20279;-74
2024/03/22 01:05:59;;;;;;;11.23;7.47;;;;;;;18.80;48.64;101972.13;4967338;28;20034;-73
2024/03/22 01:08:25;;;;;;;11.35;7.60;;;;;;;18.81;48.56;101965.88;4967790;28;20054;-73
2024/03/22 01:10:51;;;;;;;9.88;7.13;;;;;;;18.79;48.63;101970.44;4968746;28;20566;-73
2024/03/22 01:13:16;;;;;;;10.52;7.35;;;;;;;18.78;48.55;101960.78;4967600;28;20034;-75
2024/03/22 01:15:41;;;;;;;9.40;7.32;;;;;;;18.79;48.64;101964.31;4968343;28;20425;-74
2024/03/22 01:18:07;;;;;;;10.05;7.07;;;;;;;18.79;48.78;101961.66;4968160;28;20045;-75
2024/03/22 01:20:32;;;;;;;10.30;6.90;;;;;;;18.70;48.80;101934.06;4967979;28;20030;-73
2024/03/22 01:22:59;;;;;;;9.95;7.47;;;;;;;18.66;48.56;101922.88;4968225;28;20501;-75
2024/03/22 01:25:24;;;;;;;9.32;6.72;;;;;;;18.79;48.57;101948.47;4968483;28;20594;-73
2024/03/22 01:27:50;;;;;;;9.45;6.72;;;;;;;18.79;48.77;101948.47;4968192;28;20031;-73
2024/03/22 01:30:15;;;;;;;9.35;6.60;;;;;;;18.76;48.73;101953.94;4968159;28;20073;-74
2024/03/22 01:32:40;;;;;;;10.70;7.25;;;;;;;18.63;48.81;101936.25;4968086;28;20101;-73
2024/03/22 01:35:06;;;;;;;9.35;6.35;;;;;;;18.74;48.71;101948.75;4968107;28;20050;-74
2024/03/22 01:37:31;;;;;;;10.07;7.10;;;;;;;18.68;48.75;101926.25;4968007;28;20023;-73
2024/03/22 01:39:57;;;;;;;9.30;6.90;;;;;;;18.66;48.89;101922.88;4968192;28;20519;-75
2024/03/22 01:42:22;;;;;;;9.43;6.53;;;;;;;18.64;48.94;101915.97;4967879;28;20110;-75
2024/03/22 01:44:49;;;;;;;9.60;6.30;;;;;;;18.76;48.82;101932.81;4968281;28;20039;-74
2024/03/22 01:47:15;;;;;;;9.13;6.80;;;;;;;18.74;48.86;101929.41;4967776;28;20226;-73
2024/03/22 01:49:40;;;;;;;10.02;6.63;;;;;;;18.70;48.80;101926.13;4967696;28;20363;-75
2024/03/22 01:52:06;;;;;;;9.13;6.30;;;;;;;18.70;48.78;101920.84;4967956;28;20023;-74
2024/03/22 01:54:31;;;;;;;9.48;6.68;;;;;;;18.74;48.83;101922.34;4966352;28;20034;-75
2024/03/22 01:56:56;;;;;;;9.52;6.70;;;;;;;18.68;48.75;101904.28;4967887;28;20430;-73
2024/03/22 01:59:21;;;;;;;10.43;6.50;;;;;;;18.57;48.76;101893.59;4966023;28;20122;-74
2024/03/22 02:01:48;;;;;;;10.20;6.78;;;;;;;18.58;48.73;101900.53;4966881;28;20038;-75
2024/03/22 02:04:14;;;;;;;9.27;6.30;;;;;;;18.72;48.70;101942.72;4967743;28;20023;-72
2024/03/22 02:06:39;;;;;;;8.63;6.18;;;;;;;18.62;48.88;101921.38;4967699;28;20077;-73
2024/03/22 02:09:05;;;;;;;9.13;6.47;;;;;;;18.68;48.75;101925.41;4967688;28;20026;-75
2024/03/22 02:11:31;;;;;;;9.13;6.40;;;;;;;18.68;48.74;101925.41;4967799;28;20489;-74
2024/03/22 02:13:57;;;;;;;8.13;6.07;;;;;;;18.67;48.75;101921.94;4967794;28;20042;-75
2024/03/22 02:16:22;;;;;;;9.68;6.45;;;;;;;18.59;49.15;101907.53;4970817;28;20027;-72
2024/03/22 02:18:49;;;;;;;8.77;6.20;;;;;;;18.62;48.47;101920.53;4971740;28;20041;-74
2024/03/22 02:21:14;;;;;;;9.20;6.13;;;;;;;18.63;48.95;101914.31;4971021;28;20066;-72
2024/03/22 02:23:40;;;;;;;8.20;5.93;;;;;;;18.62;48.70;101909.97;4971115;28;20061;-73
2024/03/22 02:26:07;;;;;;;7.82;5.60;;;;;;;18.66;48.67;101914.94;4971354;28;20122;-74
2024/03/22 02:28:33;;;;;;;8.15;5.75;;;;;;;18.62;48.89;101908.16;4971216;28;20047;-73
2024/03/22 02:30:59;;;;;;;10.60;6.65;;;;;;;18.66;48.71;101907.03;4971128;28;20050;-74
2024/03/22 02:33:25;;;;;;;9.02;5.75;;;;;;;18.53;48.82;101887.66;4970953;28;20043;-73
2024/03/22 02:35:50;;;;;;;8.38;6.10;;;;;;;18.55;48.93;101896.34;4971396;28;20023;-74
2024/03/22 02:38:16;;;;;;;9.90;6.75;;;;;;;18.62;48.86;101908.16;4970976;28;20026;-74
2024/03/22 02:40:45;;;;;;;8.75;6.20;;;;;;;18.65;48.61;101907.13;4971156;28;20114;-75
2024/03/22 02:43:11;;;;;;;9.63;6.00;;;;;;;18.61;48.68;101906.50;4971214;28;20030;-75
2024/03/22 02:45:37;;;;;;;8.45;6.43;;;;;;;18.64;48.75;101906.28;4970971;28;20031;-74
2024/03/22 02:48:02;;;;;;;10.05;6.13;;;;;;;18.53;48.63;101890.28;4970551;28;20058;-74
2024/03/22 02:50:27;;;;;;;9.73;6.57;;;;;;;18.62;48.61;101894.97;4970617;28;20031;-73
2024/03/22 02:52:53;;;;;;;8.50;6.10;;;;;;;18.60;48.56;101886.31;4970916;28;20035;-74
2024/03/22 02:55:18;;;;;;;8.68;6.50;;;;;;;18.51;48.67;101863.16;4970827;28;20023;-74
2024/03/22 02:57:44;;;;;;;8.50;6.07;;;;;;;18.55;48.89;101855.88;4969075;28;20078;-73
2024/03/22 03:00:09;;;;;;;8.43;6.10;;;;;;;18.51;48.72;101846.47;4970704;28;20482;-73
2024/03/22 03:02:35;;;;;;;8.77;5.82;;;;;;;18.54;49.00;101841.84;4969641;28;20089;-73
2024/03/22 03:05:01;;;;;;;8.35;6.13;;;;;;;18.41;48.81;101815.41;4970580;28;20130;-73
2024/03/22 03:07:29;;;;;;;8.40;5.85;;;;;;;18.52;48.63;101833.19;4970404;28;20062;-73
2024/03/22 03:09:55;;;;;;;8.57;5.95;;;;;;;18.49;48.85;101831.59;4970793;28;20053;-73
2024/03/22 03:12:20;;;;;;;9.82;6.70;;;;;;;18.54;48.94;101847.13;4970827;28;20375;-73
2024/03/22 03:14:45;;;;;;;9.45;6.28;;;;;;;18.46;48.81;101834.44;4970477;28;20050;-73
2024/03/22 03:17:11;;;;;;;9.23;6.53;;;;;;;18.57;48.68;101846.91;4970906;28;20039;-73
2024/03/22 03:19:36;;;;;;;9.00;6.07;;;;;;;18.46;48.61;101826.50;4970532;28;20533;-73
2024/03/22 03:22:02;;;;;;;7.82;5.85;;;;;;;18.53;48.75;101844.56;4970655;28;20045;-73
2024/03/22 03:24:27;;;;;;;9.07;6.18;;;;;;;18.56;48.66;101841.72;4970322;28;20471;-74
2024/03/22 03:26:52;;;;;;;8.57;6.40;;;;;;;18.45;48.83;101818.69;4969944;28;20073;-73
2024/03/22 03:29:18;;;;;;;8.00;5.75;;;;;;;18.55;48.80;101832.97;4970171;28;20117;-73
2024/03/22 03:31:43;;;;;;;8.50;6.28;;;;;;;18.57;48.92;101830.22;4969984;28;20106;-74
2024/03/22 03:34:08;;;;;;;9.10;5.97;;;;;;;18.49;48.87;101807.81;4969468;28;20133;-74
2024/03/22 03:36:34;;;;;;;8.60;5.90;;;;;;;18.51;48.71;101801.59;4970130;28;20086;-73
2024/03/22 03:38:59;;;;;;;7.53;5.60;;;;;;;18.49;48.70;101812.28;4969773;28;20689;-74
2024/03/22 03:41:24;;;;;;;8.98;5.85;;;;;;;18.55;49.08;101809.22;4970561;28;20046;-72
2024/03/22 03:43:50;;;;;;;9.13;6.10;;;;;;;18.44;48.75;101790.63;4970116;28;20876;-73
2024/03/22 03:46:15;;;;;;;7.63;6.10;;;;;;;18.49;48.60;101797.25;4970249;28;20114;-74
2024/03/22 03:48:40;;;;;;;7.50;5.68;;;;;;;18.52;48.72;101800.63;4969846;28;20053;-73
2024/03/22 03:51:05;;;;;;;8.25;5.85;;;;;;;18.48;48.71;101792.97;4969610;28;20475;-73
2024/03/22 03:53:31;;;;;;;8.07;5.70;;;;;;;18.52;48.99;101790.94;4969701;28;20037;-73
2024/03/22 03:55:56;;;;;;;8.95;6.28;;;;;;;18.41;48.55;101775.81;4969922;28;20315;-74
2024/03/22 03:58:21;;;;;;;9.65;6.28;;;;;;;18.49;48.58;101792.00;4969645;28;20467;-73
2024/03/22 04:00:47;;;;;;;8.38;5.60;;;;;;;18.39;48.52;101774.22;4969922;28;20036;-73
2024/03/22 04:03:12;;;;;;;8.07;6.00;;;;;;;18.38;48.55;101770.75;4966893;28;20431;-73
2024/03/22 04:05:37;;;;;;;8.18;5.63;;;;;;;18.50;48.94;101795.50;4969155;28;20027;-73
2024/03/22 04:08:03;;;;;;;8.07;5.68;;;;;;;18.38;48.64;101773.41;4969454;28;20414;-74
2024/03/22 04:10:28;;;;;;;9.80;6.35;;;;;;;18.51;48.94;101788.41;4969522;28;20072;-73
2024/03/22 04:12:54;;;;;;;8.48;5.70;;;;;;;18.51;48.47;101791.88;4969085;28;20023;-74
2024/03/22 04:15:19;;;;;;;7.60;5.35;;;;;;;18.48;48.84;101789.44;4969280;28;20223;-74
2024/03/22 04:17:44;;;;;;;8.43;5.55;;;;;;;18.38;48.69;101770.75;4968941;28;20065;-74
2024/03/22 04:20:11;;;;;;;9.65;6.13;;;;;;;18.48;48.63;101789.44;4969399;28;20033;-74
2024/03/22 04:22:36;;;;;;;9.65;6.60;;;;;;;18.42;48.43;101772.25;4968788;28;20031;-75
2024/03/22 04:25:02;;;;;;;9.25;6.38;;;;;;;18.46;48.60;101786.06;4969288;28;21070;-74
2024/03/22 04:27:27;;;;;;;7.93;5.88;;;;;;;18.47;48.73;101782.50;4968889;28;20026;-73
2024/03/22 04:29:53;;;;;;;7.82;5.85;;;;;;;18.46;48.79;101788.72;4969192;28;20042;-73
2024/03/22 04:32:18;;;;;;;8.27;5.88;;;;;;;18.35;48.60;101768.31;4969590;28;21229;-73
2024/03/22 04:34:43;;;;;;;7.85;5.80;;;;;;;18.45;48.89;101787.00;4968808;28;20530;-73
2024/03/22 04:37:09;;;;;;;7.75;5.63;;;;;;;18.39;48.72;101774.22;4983275;28;20031;-73
2024/03/22 04:39:36;;;;;;;8.63;5.55;;;;;;;18.35;48.62;101765.69;4968719;28;20100;-73
2024/03/22 04:42:01;;;;;;;7.78;5.28;;;;;;;18.37;48.72;101763.78;4969035;28;20038;-73
2024/03/22 04:44:27;;;;;;;9.48;6.20;;;;;;;18.40;48.72;101771.50;4968931;28;20024;-73
2024/03/22 04:46:52;;;;;;;9.30;5.35;;;;;;;18.43;48.75;101781.84;4969115;28;20110;-73
2024/03/22 04:49:17;;;;;;;7.82;5.15;;;;;;;18.35;48.56;101770.97;4968402;28;20034;-73
2024/03/22 04:51:42;;;;;;;8.10;5.32;;;;;;;18.31;48.68;101762.41;4969078;28;20023;-73
2024/03/22 04:54:08;;;;;;;8.45;5.30;;;;;;;18.35;48.81;101768.31;4968325;28;20055;-73
2024/03/22 04:56:33;;;;;;;7.32;5.43;;;;;;;18.35;48.68;101768.31;4968923;28;20034;-73
2024/03/22 04:58:58;;;;;;;7.85;5.38;;;;;;;18.33;48.63;101751.75;4968448;28;20415;-73
2024/03/22 05:01:24;;;;;;;7.43;5.22;;;;;;;18.42;48.51;101768.75;4966734;28;20029;-73
2024/03/22 05:03:49;;;;;;;6.88;4.93;;;;;;;18.39;48.59;101755.75;4967090;28;20037;-73
2024/03/22 05:06:15;;;;;;;8.48;5.43;;;;;;;18.32;48.58;101742.13;4968580;28;20062;-73
2024/03/22 05:08:41;;;;;;;7.80;5.32;;;;;;;18.32;48.34;101744.78;4968267;28;20025;-73
2024/03/22 05:11:07;;;;;;;7.90;5.65;;;;;;;18.29;48.76;101737.94;4968397;28;20045;-73
2024/03/22 05:13:32;;;;;;;7.50;5.35;;;;;;;18.29;48.78;101737.06;4968299;28;20374;-73
2024/03/22 05:15:58;;;;;;;7.65;5.20;;;;;;;18.38;48.64;101752.28;4968644;28;20057;-73
2024/03/22 05:18:23;;;;;;;8.48;5.55;;;;;;;18.39;48.54;101761.03;4968455;28;20471;-73
2024/03/22 05:20:48;;;;;;;8.00;5.53;;;;;;;18.29;48.38;101734.44;4968213;28;20035;-73
2024/03/22 05:23:16;;;;;;;7.88;5.28;;;;;;;18.34;48.48;101748.19;4968293;28;20026;-73
2024/03/22 05:25:41;;;;;;;8.48;5.32;;;;;;;18.38;48.75;101751.44;4968145;28;20471;-73
2024/03/22 05:28:07;;;;;;;7.63;5.30;;;;;;;18.40;48.71;101754.81;4967746;28;20030;-73
2024/03/22 05:30:32;;;;;;;7.72;5.18;;;;;;;18.39;48.82;101759.25;4968081;28;20027;-73
2024/03/22 05:32:58;;;;;;;8.60;5.22;;;;;;;18.26;48.46;101738.16;4966524;28;20034;-73
2024/03/22 05:35:23;;;;;;;7.75;4.97;;;;;;;18.40;48.35;101753.00;4968240;28;20046;-73
2024/03/22 05:37:49;;;;;;;7.68;5.15;;;;;;;18.25;48.50;101731.16;4968347;28;20045;-74
2024/03/22 05:40:15;;;;;;;9.10;5.18;;;;;;;18.27;48.54;101738.97;4968077;28;20424;-73
2024/03/22 05:42:41;;;;;;;7.63;4.85;;;;;;;18.26;48.63;101732.00;4968028;28;20034;-73
2024/03/22 05:45:06;;;;;;;7.30;5.05;;;;;;;18.35;48.47;101741.94;4968519;28;20090;-73
2024/03/22 05:47:32;;;;;;;9.23;5.43;;;;;;;18.36;48.33;101740.13;4968126;28;20073;-74
2024/03/22 05:49:58;;;;;;;8.13;5.15;;;;;;;18.23;48.63;101722.50;4965694;28;20041;-74
2024/03/22 05:52:23;;;;;;;8.70;5.57;;;;;;;18.37;48.12;101750.59;4967666;28;20049;-73
2024/03/22 05:54:49;;;;;;;8.23;5.45;;;;;;;18.26;48.47;101722.31;4968060;28;20026;-73
2024/03/22 05:57:14;;;;;;;7.82;5.07;;;;;;;18.36;48.28;101741.00;4968262;28;20540;-73
2024/03/22 05:59:40;;;;;;;8.07;4.82;;;;;;;18.36;48.45;101738.34;4967874;28;20047;-74
2024/03/22 06:02:05;;;;;;;7.53;5.03;;;;;;;18.34;48.59;101735.00;4967100;28;20035;-73
2024/03/22 06:04:30;;;;;;;6.78;4.55;;;;;;;18.24;48.32;101718.06;4967748;28;20058;-73
2024/03/22 06:06:59;;;;;;;9.10;5.45;;;;;;;18.31;48.28;101727.28;4968270;28;20113;-74
2024/03/22 06:09:34;;;;;;;7.40;5.57;;;;;;;18.34;48.40;101736.75;4967712;28;20030;-73
2024/03/22 06:11:59;;;;;;;7.40;5.05;;;;;;;18.31;48.37;101735.19;4968003;28;20030;-73
2024/03/22 06:14:24;;;;;;;7.45;5.00;;;;;;;18.31;48.38;101751.88;4967980;28;20544;-73
2024/03/22 06:16:50;;;;;;;6.87;4.67;;;;;;;18.20;48.56;101719.22;4968138;28;20023;-74
2024/03/22 06:19:15;;;;;;;7.23;4.87;;;;;;;18.29;48.33;101737.06;4968518;28;20308;-73
2024/03/22 06:21:40;;;;;;;9.13;5.55;;;;;;;18.22;48.24;101719.97;4968624;28;20312;-73
2024/03/22 06:24:05;;;;;;;6.95;4.60;;;;;;;18.33;48.31;101740.38;4968292;28;20110;-73
2024/03/22 06:26:31;;;;;;;6.70;4.38;;;;;;;18.21;48.20;101719.13;4968975;28;20031;-73
2024/03/22 06:28:56;;;;;;;6.57;4.00;;;;;;;18.31;48.09;101735.19;4968514;28;20118;-73
2024/03/22 06:31:21;;;;;;;5.73;3.70;;;;;;;18.29;48.33;101726.50;4968141;28;20284;-73
2024/03/22 06:33:46;;;;;;;5.95;3.72;;;;;;;18.24;48.50;101716.28;4968334;28;20272;-73
2024/03/22 06:36:12;;;;;;;5.70;3.40;;;;;;;18.31;48.23;101729.91;4968729;28;20526;-74
2024/03/22 06:38:38;;;;;;;5.38;3.20;;;;;;;18.26;48.30;101721.44;4968471;28;20027;-73
2024/03/22 06:41:04;;;;;;;5.60;3.05;;;;;;;18.30;48.30;101729.06;4968830;28;20497;-73
2024/03/22 06:43:29;;;;;;;5.43;2.95;;;;;;;18.29;48.55;101721.25;4969402;28;20019;-74
2024/03/22 06:45:54;;;;;;;5.07;2.95;;;;;;;18.40;48.76;101737.19;4966465;28;20121;-73
2024/03/22 06:48:19;;;;;;;5.10;2.70;;;;;;;18.33;48.64;101720.09;4968925;28;20030;-74
2024/03/22 06:50:45;;;;;;;4.57;2.60;;;;;;;18.39;48.62;101721.44;4968822;28;20038;-72
2024/03/22 06:53:11;;;;;;;5.38;3.20;;;;;;;18.40;48.61;101723.16;4968654;28;20023;-73
2024/03/22 06:55:37;;;;;;;4.85;2.58;;;;;;;18.36;48.57;101714.59;4968301;28;20057;-73
2024/03/22 06:58:02;;;;;;;4.28;2.50;;;;;;;18.47;48.58;101727.06;4967419;28;20046;-73
2024/03/22 07:00:27;;;;;;;5.05;2.80;;;;;;;18.47;48.63;101727.91;4967245;28;20414;-73
2024/03/22 07:02:53;;;;;;;3.80;2.20;;;;;;;18.51;48.50;101733.81;4970710;28;20063;-74
2024/03/22 07:05:18;;;;;;;4.25;2.33;;;;;;;18.52;48.65;101727.59;4972395;28;20026;-73
2024/03/22 07:07:44;;;;;;;4.65;2.50;;;;;;;18.56;48.62;101730.84;4972995;28;20122;-74
2024/03/22 07:10:09;;;;;;;4.43;2.28;;;;;;;18.58;48.78;101731.59;4970437;28;20093;-74
2024/03/22 07:12:34;;;;;;;4.97;2.50;;;;;;;18.59;48.64;101734.13;4973273;28;20027;-74
2024/03/22 07:15:01;;;;;;;4.63;2.50;;;;;;;18.60;48.63;101735.00;4970576;28;20082;-73
2024/03/22 07:17:27;;;;;;;4.35;2.38;;;;;;;18.46;48.99;101712.19;4973245;28;20359;-74
2024/03/22 07:19:53;;;;;;;5.22;2.55;;;;;;;18.53;48.83;101712.59;4972355;28;20105;-73
2024/03/22 07:22:19;;;;;;;5.25;2.22;;;;;;;18.50;48.99;101711.03;4972399;28;20027;-73
2024/03/22 07:24:45;;;;;;;4.93;2.45;;;;;;;18.61;49.10;101731.38;4971676;28;20435;-73
2024/03/22 07:27:10;;;;;;;4.72;2.65;;;;;;;18.65;48.85;101732.88;4970934;28;20113;-73
2024/03/22 07:29:36;;;;;;;5.78;2.85;;;;;;;18.64;49.18;101721.47;4972163;28;20101;-73
2024/03/22 07:32:02;;;;;;;4.80;2.25;;;;;;;18.56;49.11;101707.09;4972974;28;20756;-74
2024/03/22 07:34:27;;;;;;;4.45;2.25;;;;;;;18.55;48.98;101703.63;4972343;28;20042;-73
2024/03/22 07:36:53;;;;;;;4.03;2.10;;;;;;;18.61;49.22;101716.41;4972172;28;20022;-73
2024/03/22 07:39:18;;;;;;;4.80;2.58;;;;;;;18.63;49.47;101717.13;4971988;28;20768;-73
2024/03/22 07:41:43;;;;;;;4.47;2.38;;;;;;;18.72;49.24;101731.47;4971491;28;20482;-74
2024/03/22 07:44:09;;;;;;;4.55;2.30;;;;;;;18.71;49.29;101724.53;4975970;28;20447;-74
2024/03/22 07:46:34;;;;;;;5.35;2.22;;;;;;;18.60;49.43;101704.13;4975982;28;20033;-74
2024/03/22 07:49:00;;;;;;;5.30;2.28;;;;;;;18.59;49.46;101694.53;4975213;28;20114;-75
2024/03/22 07:51:26;;;;;;;4.88;2.45;;;;;;;18.75;49.51;101720.69;4975058;28;20486;-73
2024/03/22 07:53:52;;;;;;;5.10;2.70;;;;;;;18.76;49.51;101713.63;4975682;28;20031;-74
2024/03/22 07:56:17;;;;;;;4.15;2.42;;;;;;;18.78;49.64;101722.28;4975264;28;20133;-74
2024/03/22 07:58:43;;;;;;;8.43;2.60;;;;;;;18.75;49.57;101717.22;4975910;28;20039;-74
2024/03/22 08:01:08;;;;;;;4.65;2.47;;;;;;;18.76;49.72;101718.91;4977190;28;20414;-75
2024/03/22 08:03:33;;;;;;;5.70;2.60;;;;;;;18.68;49.96;101709.72;4975187;28;20030;-72
2024/03/22 08:05:58;;;;;;;5.43;2.53;;;;;;;18.72;50.29;101707.72;4973254;28;20483;-72
2024/03/22 08:08:24;;;;;;;4.97;2.60;;;;;;;18.82;50.75;101714.03;4968837;28;20042;-72
2024/03/22 08:10:49;;;;;;;6.70;3.13;;;;;;;18.90;51.23;101723.25;4969303;28;20043;-73
2024/03/22 08:13:15;;;;;;;5.80;3.10;;;;;;;18.79;51.38;101708.16;4969009;28;20154;-73
2024/03/22 08:15:41;;;;;;;7.07;3.30;;;;;;;18.87;51.76;101716.41;4969204;28;20617;-74
2024/03/22 08:18:07;;;;;;;7.82;3.10;;;;;;;18.78;51.59;101703.81;4965605;28;20117;-73
2024/03/22 08:20:34;;;;;;;5.75;2.90;;;;;;;18.89;51.31;101719.75;4968053;28;20053;-72
2024/03/22 08:22:59;;;;;;;6.53;3.78;;;;;;;18.79;51.52;101701.06;4967726;28;20551;-70
2024/03/22 08:25:25;;;;;;;6.82;3.42;;;;;;;18.88;51.33;101722.50;4968495;28;20038;-74
2024/03/22 08:27:52;;;;;;;7.10;3.67;;;;;;;18.79;51.18;101703.69;4967182;28;20084;-73
2024/03/22 08:30:18;;;;;;;10.20;4.18;;;;;;;18.88;51.24;101714.59;4968259;28;20367;-75
2024/03/22 08:32:43;;;;;;;6.18;3.90;;;;;;;18.85;51.27;101716.50;4968753;28;20026;-73
2024/03/22 08:35:08;;;;;;;6.57;3.83;;;;;;;18.89;51.10;101713.66;4968573;28;20043;-76
2024/03/22 08:37:34;;;;;;;7.18;4.65;;;;;;;18.74;51.24;101689.97;4969636;28;20026;-77
2024/03/22 08:39:59;;;;;;;7.47;4.45;;;;;;;18.83;50.83;101702.53;4966463;28;20134;-74
2024/03/22 08:42:24;;;;;;;5.88;3.90;;;;;;;18.89;50.91;101711.00;4968026;28;20476;-74
2024/03/22 08:44:50;;;;;;;8.02;4.15;;;;;;;18.77;51.09;101697.69;4968252;28;20037;-74
2024/03/22 08:47:15;;;;;;;8.05;4.05;;;;;;;18.79;50.76;101693.13;4966748;28;20058;-74
2024/03/22 08:49:43;;;;;;;6.97;4.30;;;;;;;18.89;50.83;101709.19;4967239;28;20333;-74
2024/03/22 08:52:08;;;;;;;7.88;4.55;;;;;;;18.91;50.55;101707.28;4967024;28;20046;-72
2024/03/22 08:54:34;;;;;;;7.80;4.60;;;;;;;18.79;50.45;101695.78;4966560;28;20419;-71
2024/03/22 08:56:59;;;;;;;7.05;4.10;;;;;;;18.82;50.61;101692.09;4967290;28;20031;-73
2024/03/22 08:59:25;;;;;;;7.82;4.25;;;;;;;18.78;50.87;101683.50;4967737;28;20494;-73
2024/03/22 09:01:50;;;;;;;9.40;4.30;;;;;;;18.81;50.72;101696.50;4966813;28;20383;-72
2024/03/22 09:04:15;;;;;;;6.68;4.25;;;;;;;18.89;50.19;101711.84;4966783;28;20125;-71
2024/03/22 09:06:41;;;;;;;9.07;7.03;;;;;;;18.85;47.50;101707.75;4966731;28;20061;-69
2024/03/22 09:09:07;;;;;;;8.20;6.05;;;;;;;18.74;47.29;101684.69;4964312;28;20252;-70
2024/03/22 09:11:33;;;;;;;8.50;4.75;;;;;;;18.85;48.92;101703.31;4965358;28;20431;-73
2024/03/22 09:13:58;;;;;;;7.20;4.28;;;;;;;18.85;48.90;101702.47;4966025;28;20054;-71
2024/03/22 09:16:23;;;;;;;7.82;4.30;;;;;;;18.82;49.40;101698.19;4967740;28;20023;-72
2024/03/22 09:18:49;;;;;;;6.18;4.20;;;;;;;18.85;49.47;101705.94;4967397;28;20037;-74
2024/03/22 09:21:14;;;;;;;6.20;3.80;;;;;;;18.73;49.54;101677.72;4967592;28;20038;-74
2024/03/22 09:23:39;;;;;;;6.30;3.30;;;;;;;18.79;49.61;101690.50;4967133;28;20055;-73
2024/03/22 09:26:05;;;;;;;4.97;3.03;;;;;;;18.78;49.71;101680.88;4967374;28;20732;-75
2024/03/22 09:28:31;;;;;;;5.57;3.33;;;;;;;18.84;49.69;101677.00;4967302;28;20031;-70
2024/03/22 09:30:56;;;;;;;7.75;3.30;;;;;;;18.87;49.39;101678.56;4967134;28;20042;-75
2024/03/22 09:33:22;;;;;;;5.57;3.33;;;;;;;18.86;49.63;101667.16;4967228;28;20031;-74
2024/03/22 09:35:47;;;;;;;5.13;3.10;;;;;;;18.86;49.92;101661.88;4967340;28;20288;-72
2024/03/22 09:38:12;;;;;;;6.47;3.20;;;;;;;18.96;49.70;101670.84;4967314;28;21272;-74
2024/03/22 09:40:39;;;;;;;5.45;3.10;;;;;;;19.01;49.59;101676.63;4967504;28;20039;-73
2024/03/22 09:43:06;;;;;;;5.35;2.70;;;;;;;18.99;49.33;101656.56;4965203;28;20039;-72
2024/03/22 09:45:32;;;;;;;4.40;2.55;;;;;;;19.03;49.41;101671.25;4965293;28;20082;-74
2024/03/22 09:47:58;;;;;;;4.35;2.42;;;;;;;19.13;49.53;101672.25;4967136;28;20035;-73
2024/03/22 09:50:24;;;;;;;4.60;2.67;;;;;;;19.12;49.49;101675.00;4966807;28;20078;-74
2024/03/22 09:52:52;;;;;;;3.88;2.42;;;;;;;19.15;49.50;101667.72;4965672;28;20035;-74
2024/03/22 09:55:23;;;;;;;5.70;2.45;;;;;;;19.16;49.47;101669.38;4966980;28;20034;-75
2024/03/22 09:57:50;;;;;;;5.50;3.03;;;;;;;19.15;49.33;101667.72;4965318;28;20043;-73
2024/03/22 10:00:18;;;;;;;5.22;3.03;;;;;;;19.17;49.03;101672.91;4965457;28;20499;-74
2024/03/22 10:02:46;;;;;;;5.53;2.95;;;;;;;19.24;48.85;101668.00;4963888;28;20043;-73
2024/03/22 10:05:11;;;;;;;4.85;2.83;;;;;;;19.13;48.87;101652.91;4966903;28;20027;-73
2024/03/22 10:07:37;;;;;;;5.85;2.70;;;;;;;19.15;48.84;101643.06;4966056;28;20451;-75
2024/03/22 10:10:03;;;;;;;4.85;2.60;;;;;;;19.32;48.48;101668.28;4967260;28;20035;-75
2024/03/22 10:12:28;;;;;;;5.80;2.63;;;;;;;19.29;48.87;101664.03;4967558;28;20106;-72
2024/03/22 10:14:54;;;;;;;6.57;2.60;;;;;;;19.21;48.73;101640.81;4963634;28;20079;-76
2024/03/22 10:17:20;;;;;;;4.00;2.30;;;;;;;19.24;48.93;101642.41;4965344;28;20062;-73
2024/03/22 10:19:45;;;;;;;5.00;2.35;;;;;;;19.28;48.90;101665.03;4964759;28;20089;-69
2024/03/22 10:22:10;;;;;;;4.97;2.35;;;;;;;19.34;48.86;101658.44;4967601;28;20038;-73
2024/03/22 10:24:36;;;;;;;4.45;2.20;;;;;;;19.27;48.90;101644.00;4965767;28;20097;-71
2024/03/22 10:27:01;;;;;;;4.20;2.30;;;;;;;19.23;49.01;101638.06;4967584;28;20038;-74
2024/03/22 10:29:26;;;;;;;6.78;2.25;;;;;;;19.29;48.88;101647.34;4967241;28;20035;-73
2024/03/22 10:31:54;;;;;;;3.85;2.20;;;;;;;19.32;48.68;101655.06;4967402;28;20043;-73
2024/03/22 10:34:21;;;;;;;4.40;2.40;;;;;;;19.30;48.87;101651.69;4965304;28;20035;-73
2024/03/22 10:36:47;;;;;;;4.95;2.15;;;;;;;19.21;48.73;101638.19;4969691;28;20437;-72
2024/03/22 10:39:16;;;;;;;3.95;2.03;;;;;;;19.22;49.01;101641.69;4970835;28;20100;-73
2024/03/22 10:41:42;;;;;;;4.22;2.20;;;;;;;19.18;48.90;101632.28;4970702;28;20019;-74
2024/03/22 10:44:08;;;;;;;3.92;1.92;;;;;;;19.29;49.01;101653.47;4970878;28;20035;-72
2024/03/22 10:46:35;;;;;;;4.03;2.05;;;;;;;19.28;48.76;101651.81;4970475;28;20474;-72
2024/03/22 10:49:04;;;;;;;4.10;2.53;;;;;;;19.16;48.68;101639.50;4970702;28;20022;-73
2024/03/22 10:51:31;;;;;;;5.38;2.20;;;;;;;19.14;48.77;101639.59;4970571;28;20038;-72
2024/03/22 10:53:58;;;;;;;5.32;2.10;;;;;;;19.15;48.61;101638.66;4970764;28;20043;-72
2024/03/22 10:56:24;;;;;;;3.78;2.10;;;;;;;19.11;48.71;101637.19;4970898;28;20031;-74
2024/03/22 10:58:52;;;;;;;4.05;2.20;;;;;;;19.11;48.79;101637.19;4970656;28;20035;-73
2024/03/22 11:01:25;;;;;;;4.15;2.20;;;;;;;19.14;48.70;101638.75;4970749;28;20109;-72
2024/03/22 11:03:50;;;;;;;4.65;2.35;;;;;;;19.24;48.66;101649.50;4968935;28;20503;-72
2024/03/22 11:06:20;;;;;;;4.40;2.10;;;;;;;19.21;48.64;101647.91;4970206;28;20026;-73
2024/03/22 11:08:50;;;;;;;4.25;2.17;;;;;;;19.17;48.75;101644.66;4970275;28;20080;-73
2024/03/22 11:11:19;;;;;;;4.50;2.00;;;;;;;19.19;48.62;101637.47;4970153;28;20375;-73
2024/03/22 11:13:48;;;;;;;4.60;2.25;;;;;;;19.20;48.74;101649.72;4970262;28;20054;-74
2024/03/22 11:16:14;;;;;;;4.38;2.22;;;;;;;19.15;48.90;101632.50;4970479;28;20075;-73